createdAt,value
2019-06-27T00:00:10.609Z,4.00
2019-06-27T00:01:10.646Z,4.00
2019-06-27T00:02:10.622Z,4.00
2019-06-27T00:03:10.689Z,4.00
2019-06-27T00:04:10.581Z,4.00
2019-06-27T00:05:10.610Z,4.00
2019-06-27T00:06:10.591Z,4.00
2019-06-27T00:07:10.590Z,4.00
2019-06-27T00:08:10.560Z,4.00
2019-06-27T00:09:10.563Z,4.00
2019-06-27T00:10:10.564Z,4.00
2019-06-27T00:11:10.536Z,4.00
2019-06-27T00:12:10.534Z,4.00
2019-06-27T00:13:10.511Z,4.00
2019-06-27T00:14:10.525Z,4.00
2019-06-27T00:15:10.502Z,4.00
2019-06-27T00:16:10.510Z,4.00
2019-06-27T00:17:10.471Z,4.00
2019-06-27T00:18:10.484Z,4.00
2019-06-27T00:19:10.468Z,4.00
2019-06-27T00:20:10.478Z,4.00
2019-06-27T00:21:10.463Z,4.00
2019-06-27T00:22:10.435Z,4.00
2019-06-27T00:23:10.407Z,4.00
2019-06-27T00:24:10.435Z,4.00
2019-06-27T00:25:10.414Z,4.00
2019-06-27T00:26:10.403Z,4.00
2019-06-27T00:27:10.374Z,4.00
2019-06-27T00:28:10.402Z,4.00
2019-06-27T00:29:10.341Z,4.00
2019-06-27T00:30:10.363Z,4.00
2019-06-27T00:31:10.348Z,4.00
2019-06-27T00:32:10.333Z,4.00
2019-06-27T00:33:10.320Z,4.00
2019-06-27T00:34:10.349Z,4.00
2019-06-27T00:35:10.319Z,4.00
2019-06-27T00:36:10.309Z,4.00
2019-06-27T00:37:10.299Z,4.00
2019-06-27T00:38:10.314Z,4.00
2019-06-27T00:39:10.269Z,4.00
2019-06-27T00:40:10.272Z,4.00
2019-06-27T00:41:10.231Z,4.00
2019-06-27T00:42:10.231Z,4.00
2019-06-27T00:43:10.220Z,4.00
2019-06-27T00:44:10.223Z,4.00
2019-06-27T00:45:10.213Z,4.00
2019-06-27T00:46:10.197Z,4.00
2019-06-27T00:47:10.192Z,4.00
2019-06-27T00:48:10.209Z,4.00
2019-06-27T00:49:10.176Z,4.00
2019-06-27T00:50:10.153Z,4.00
2019-06-27T00:51:10.154Z,4.00
2019-06-27T00:52:10.134Z,4.00
2019-06-27T00:53:10.119Z,4.00
2019-06-27T00:54:10.115Z,4.00
2019-06-27T00:55:10.109Z,4.00
2019-06-27T00:56:10.090Z,4.00
2019-06-27T00:57:14.437Z,4.00
2019-06-27T00:58:11.573Z,4.00
2019-06-27T00:59:10.062Z,4.00
2019-06-27T01:00:10.065Z,4.00
2019-06-27T01:01:10.042Z,4.00
2019-06-27T01:02:10.051Z,4.00
2019-06-27T01:03:10.018Z,4.00
2019-06-27T01:04:10.015Z,4.00
2019-06-27T01:05:10.021Z,4.00
2019-06-27T01:06:10.048Z,4.00
2019-06-27T01:07:09.991Z,4.00
2019-06-27T01:08:09.972Z,4.00
2019-06-27T01:09:10.119Z,4.00
2019-06-27T01:10:09.964Z,4.00
2019-06-27T01:11:09.955Z,4.00
2019-06-27T01:12:09.941Z,4.00
2019-06-27T01:13:09.936Z,4.00
2019-06-27T01:14:10.081Z,4.00
2019-06-27T01:15:09.925Z,4.00
2019-06-27T01:16:09.943Z,4.00
2019-06-27T01:17:09.902Z,4.00
2019-06-27T01:18:09.881Z,4.00
2019-06-27T01:19:09.924Z,4.00
2019-06-27T01:20:09.869Z,4.00
2019-06-27T01:21:09.858Z,4.00
2019-06-27T01:22:09.850Z,4.00
2019-06-27T01:23:09.830Z,4.00
2019-06-27T01:24:09.991Z,4.00
2019-06-27T01:25:09.829Z,4.00
2019-06-27T01:26:09.826Z,4.00
2019-06-27T01:27:09.808Z,4.00
2019-06-27T01:28:09.802Z,4.00
2019-06-27T01:29:09.897Z,4.00
2019-06-27T01:30:09.779Z,4.00
2019-06-27T01:31:09.771Z,4.00
2019-06-27T01:32:09.746Z,4.00
2019-06-27T01:33:09.800Z,4.00
2019-06-27T01:34:09.915Z,4.00
2019-06-27T01:35:09.726Z,4.00
2019-06-27T01:36:09.729Z,4.00
2019-06-27T01:37:09.715Z,4.00
2019-06-27T01:38:09.724Z,4.00
2019-06-27T01:39:09.747Z,4.00
2019-06-27T01:40:09.797Z,4.00
2019-06-27T01:41:09.683Z,4.00
2019-06-27T01:42:09.664Z,4.00
2019-06-27T01:43:09.649Z,4.00
2019-06-27T01:44:09.652Z,4.00
2019-06-27T01:45:09.802Z,4.00
2019-06-27T01:46:09.631Z,4.00
2019-06-27T01:47:09.609Z,4.00
2019-06-27T01:48:09.612Z,4.00
2019-06-27T01:49:09.588Z,4.00
2019-06-27T01:50:09.585Z,4.00
2019-06-27T01:51:09.579Z,4.00
2019-06-27T01:52:09.570Z,4.00
2019-06-27T01:53:09.550Z,4.00
2019-06-27T01:54:09.543Z,4.00
2019-06-27T01:55:09.532Z,4.00
2019-06-27T01:56:09.530Z,4.00
2019-06-27T01:57:09.559Z,4.00
2019-06-27T01:58:09.539Z,4.00
2019-06-27T01:59:09.494Z,4.00
2019-06-27T02:00:09.485Z,4.00
2019-06-27T02:01:09.482Z,4.00
2019-06-27T02:02:09.474Z,4.00
2019-06-27T02:03:09.482Z,4.00
2019-06-27T02:04:09.467Z,4.00
2019-06-27T02:05:09.443Z,4.00
2019-06-27T02:06:09.437Z,4.00
2019-06-27T02:07:09.426Z,4.00
2019-06-27T02:08:09.408Z,4.00
2019-06-27T02:09:09.408Z,4.00
2019-06-27T02:10:09.410Z,4.00
2019-06-27T02:11:09.377Z,4.00
2019-06-27T02:12:09.366Z,4.00
2019-06-27T02:13:09.354Z,4.00
2019-06-27T02:14:09.351Z,4.00
2019-06-27T02:15:09.348Z,4.00
2019-06-27T02:16:09.347Z,4.00
2019-06-27T02:17:09.325Z,4.00
2019-06-27T02:18:09.338Z,4.00
2019-06-27T02:19:09.300Z,4.00
2019-06-27T02:20:09.289Z,4.00
2019-06-27T02:21:09.272Z,4.00
2019-06-27T02:22:09.263Z,4.00
2019-06-27T02:23:09.268Z,4.00
2019-06-27T02:24:09.278Z,4.00
2019-06-27T02:25:09.241Z,4.00
2019-06-27T02:26:09.232Z,4.00
2019-06-27T02:27:09.237Z,4.00
2019-06-27T02:28:09.195Z,4.00
2019-06-27T02:29:09.201Z,4.00
2019-06-27T02:30:09.189Z,4.00
2019-06-27T02:31:09.188Z,4.00
2019-06-27T02:32:09.171Z,4.00
2019-06-27T02:33:09.155Z,4.00
2019-06-27T02:34:09.159Z,4.00
2019-06-27T02:35:09.148Z,4.00
2019-06-27T02:36:09.156Z,4.00
2019-06-27T02:37:09.134Z,4.00
2019-06-27T02:38:09.109Z,4.00
2019-06-27T02:39:09.130Z,4.00
2019-06-27T02:40:09.085Z,4.00
2019-06-27T02:41:09.077Z,4.00
2019-06-27T02:42:09.075Z,4.00
2019-06-27T02:43:09.084Z,4.00
2019-06-27T02:44:09.056Z,4.00
2019-06-27T02:45:09.038Z,4.00
2019-06-27T02:46:09.032Z,4.00
2019-06-27T02:47:09.065Z,4.00
2019-06-27T02:48:09.029Z,4.00
2019-06-27T02:49:09.008Z,4.00
2019-06-27T02:50:08.998Z,4.00
2019-06-27T02:51:08.995Z,4.00
2019-06-27T02:52:08.989Z,4.00
2019-06-27T02:53:08.982Z,4.00
2019-06-27T02:54:08.966Z,4.00
2019-06-27T02:55:08.982Z,4.00
2019-06-27T02:56:08.910Z,4.00
2019-06-27T02:57:08.957Z,4.00
2019-06-27T02:58:28.545Z,4.00
2019-06-27T02:59:08.907Z,4.00
2019-06-27T03:00:08.895Z,4.00
2019-06-27T03:01:08.887Z,4.00
2019-06-27T03:02:08.872Z,4.00
2019-06-27T03:03:08.880Z,4.00
2019-06-27T03:04:08.897Z,4.00
2019-06-27T03:05:08.862Z,4.00
2019-06-27T03:06:08.859Z,4.00
2019-06-27T03:07:08.826Z,4.00
2019-06-27T03:08:08.806Z,4.00
2019-06-27T03:09:08.817Z,4.00
2019-06-27T03:10:08.790Z,4.00
2019-06-27T03:11:08.786Z,4.00
2019-06-27T03:12:08.776Z,4.00
2019-06-27T03:13:08.764Z,4.00
2019-06-27T03:14:08.755Z,4.00
2019-06-27T03:15:08.749Z,4.00
2019-06-27T03:16:08.752Z,4.00
2019-06-27T03:17:08.731Z,4.00
2019-06-27T03:18:08.722Z,4.00
2019-06-27T03:19:08.707Z,4.00
2019-06-27T03:20:08.695Z,4.00
2019-06-27T03:21:08.695Z,4.00
2019-06-27T03:22:08.694Z,4.00
2019-06-27T03:23:08.656Z,4.00
2019-06-27T03:24:08.670Z,4.00
2019-06-27T03:25:08.642Z,4.00
2019-06-27T03:26:08.637Z,4.00
2019-06-27T03:27:08.638Z,4.00
2019-06-27T03:28:08.611Z,4.00
2019-06-27T03:29:08.606Z,4.00
2019-06-27T03:30:08.596Z,4.00
2019-06-27T03:31:08.585Z,4.00
2019-06-27T03:32:08.567Z,4.00
2019-06-27T03:33:08.568Z,4.00
2019-06-27T03:34:08.602Z,4.00
2019-06-27T03:35:08.534Z,4.00
2019-06-27T03:36:08.535Z,4.00
2019-06-27T03:37:08.538Z,4.00
2019-06-27T03:38:08.623Z,4.00
2019-06-27T03:39:08.507Z,4.00
2019-06-27T03:40:08.497Z,4.00
2019-06-27T03:41:08.469Z,4.00
2019-06-27T03:42:08.485Z,4.00
2019-06-27T03:43:08.468Z,4.00
2019-06-27T03:44:08.447Z,4.00
2019-06-27T03:45:08.463Z,4.00
2019-06-27T03:46:08.433Z,4.00
2019-06-27T03:47:08.429Z,4.00
2019-06-27T03:48:08.430Z,4.00
2019-06-27T03:49:08.407Z,4.00
2019-06-27T03:50:08.414Z,4.00
2019-06-27T03:51:08.390Z,4.00
2019-06-27T03:52:08.401Z,4.00
2019-06-27T03:53:08.358Z,4.00
2019-06-27T03:54:08.367Z,4.00
2019-06-27T03:55:08.369Z,4.00
2019-06-27T03:56:08.341Z,4.00
2019-06-27T03:57:08.332Z,4.00
2019-06-27T03:58:08.306Z,4.00
2019-06-27T03:59:12.781Z,4.00
2019-06-27T04:00:08.321Z,4.00
2019-06-27T04:01:08.306Z,4.00
2019-06-27T04:02:08.268Z,4.00
2019-06-27T04:03:08.279Z,4.00
2019-06-27T04:04:08.250Z,4.00
2019-06-27T04:05:08.264Z,4.00
2019-06-27T04:06:08.238Z,4.00
2019-06-27T04:07:08.250Z,4.00
2019-06-27T04:08:08.223Z,4.00
2019-06-27T04:09:08.194Z,4.00
2019-06-27T04:10:08.225Z,4.00
2019-06-27T04:11:08.217Z,4.00
2019-06-27T04:12:08.201Z,4.00
2019-06-27T04:13:08.204Z,4.00
2019-06-27T04:14:08.167Z,4.00
2019-06-27T04:15:08.164Z,4.00
2019-06-27T04:16:08.148Z,4.00
2019-06-27T04:17:08.161Z,4.00
2019-06-27T04:18:08.151Z,4.00
2019-06-27T04:19:08.117Z,4.00
2019-06-27T04:20:08.084Z,4.00
2019-06-27T04:21:08.105Z,4.00
2019-06-27T04:22:08.077Z,4.00
2019-06-27T04:23:08.073Z,4.00
2019-06-27T04:24:08.097Z,4.00
2019-06-27T04:25:08.055Z,4.00
2019-06-27T04:26:08.050Z,4.00
2019-06-27T04:27:08.058Z,4.00
2019-06-27T04:28:08.026Z,4.00
2019-06-27T04:29:08.052Z,4.00
2019-06-27T04:30:08.018Z,4.00
2019-06-27T04:31:08.015Z,4.00
2019-06-27T04:32:07.979Z,4.00
2019-06-27T04:33:07.985Z,4.00
2019-06-27T04:34:07.969Z,4.00
2019-06-27T04:35:07.956Z,4.00
2019-06-27T04:36:07.957Z,4.00
2019-06-27T04:37:07.940Z,4.00
2019-06-27T04:38:07.927Z,4.00
2019-06-27T04:39:07.907Z,4.00
2019-06-27T04:40:07.909Z,4.00
2019-06-27T04:41:07.909Z,4.00
2019-06-27T04:42:07.893Z,4.00
2019-06-27T04:43:07.856Z,4.00
2019-06-27T04:44:07.911Z,4.00
2019-06-27T04:45:07.873Z,4.00
2019-06-27T04:46:07.852Z,4.00
2019-06-27T04:47:07.842Z,4.00
2019-06-27T04:48:07.872Z,4.00
2019-06-27T04:49:12.971Z,4.00
2019-06-27T04:50:07.803Z,4.00
2019-06-27T04:51:07.810Z,4.00
2019-06-27T04:52:07.800Z,4.00
2019-06-27T04:53:07.778Z,4.00
2019-06-27T04:54:07.775Z,4.00
2019-06-27T04:55:07.739Z,4.00
2019-06-27T04:56:07.738Z,4.00
2019-06-27T04:57:07.750Z,4.00
2019-06-27T04:58:07.725Z,4.00
2019-06-27T04:59:07.701Z,4.00
2019-06-27T05:00:07.717Z,4.00
2019-06-27T05:01:07.699Z,4.00
2019-06-27T05:02:07.694Z,4.00
2019-06-27T05:03:07.709Z,4.00
2019-06-27T05:04:07.678Z,4.00
2019-06-27T05:05:07.647Z,4.00
2019-06-27T05:06:07.651Z,4.00
2019-06-27T05:07:07.627Z,4.00
2019-06-27T05:08:07.631Z,4.00
2019-06-27T05:09:07.611Z,4.00
2019-06-27T05:10:07.608Z,4.00
2019-06-27T05:11:07.581Z,4.00
2019-06-27T05:12:07.572Z,4.00
2019-06-27T05:13:07.573Z,4.00
2019-06-27T05:14:07.560Z,4.00
2019-06-27T05:15:07.548Z,4.00
2019-06-27T05:16:07.551Z,4.00
2019-06-27T05:17:07.536Z,4.00
2019-06-27T05:18:07.522Z,4.00
2019-06-27T05:19:07.524Z,4.00
2019-06-27T05:20:07.498Z,4.00
2019-06-27T05:21:07.469Z,4.00
2019-06-27T05:22:07.499Z,4.00
2019-06-27T05:23:07.483Z,4.00
2019-06-27T05:24:07.450Z,4.00
2019-06-27T05:25:07.439Z,4.00
2019-06-27T05:26:07.436Z,4.00
2019-06-27T05:27:07.416Z,4.00
2019-06-27T05:28:07.418Z,4.00
2019-06-27T05:29:07.404Z,4.00
2019-06-27T05:30:09.866Z,4.00
2019-06-27T05:31:07.388Z,4.00
2019-06-27T05:32:07.393Z,4.00
2019-06-27T05:33:07.382Z,4.00
2019-06-27T05:34:07.356Z,4.00
2019-06-27T05:35:07.344Z,4.00
2019-06-27T05:36:07.369Z,4.00
2019-06-27T05:37:07.333Z,4.00
2019-06-27T05:38:07.313Z,4.00
2019-06-27T05:39:07.278Z,4.00
2019-06-27T05:40:07.290Z,4.00
2019-06-27T05:41:07.299Z,4.00
2019-06-27T05:42:07.274Z,4.00
2019-06-27T05:43:07.281Z,4.00
2019-06-27T05:44:07.255Z,4.00
2019-06-27T05:45:07.290Z,4.00
2019-06-27T05:46:07.244Z,4.00
2019-06-27T05:47:07.298Z,4.00
2019-06-27T05:48:07.200Z,4.00
2019-06-27T05:49:07.256Z,4.00
2019-06-27T05:50:07.216Z,4.00
2019-06-27T05:51:07.187Z,4.00
2019-06-27T05:52:07.180Z,4.00
2019-06-27T05:53:07.150Z,4.00
2019-06-27T05:54:07.200Z,4.00
2019-06-27T05:55:07.169Z,4.00
2019-06-27T05:56:07.131Z,4.00
2019-06-27T05:57:07.130Z,4.00
2019-06-27T05:58:07.124Z,4.00
2019-06-27T05:59:07.112Z,4.00
2019-06-27T06:00:07.094Z,4.00
2019-06-27T06:01:07.075Z,4.00
2019-06-27T06:02:07.075Z,4.00
2019-06-27T06:03:07.078Z,4.00
2019-06-27T06:04:07.053Z,4.00
2019-06-27T06:05:07.051Z,4.00
2019-06-27T06:06:07.024Z,4.00
2019-06-27T06:07:07.011Z,4.00
2019-06-27T06:08:06.994Z,4.00
2019-06-27T06:09:07.014Z,4.00
2019-06-27T06:10:07.017Z,4.00
2019-06-27T06:11:06.982Z,4.00
2019-06-27T06:12:07.042Z,4.00
2019-06-27T06:13:06.961Z,4.00
2019-06-27T06:14:06.961Z,4.00
2019-06-27T06:15:06.940Z,4.00
2019-06-27T06:16:06.938Z,4.00
2019-06-27T06:17:06.918Z,4.00
2019-06-27T06:18:06.923Z,4.00
2019-06-27T06:19:06.897Z,4.00
2019-06-27T06:20:06.898Z,4.00
2019-06-27T06:21:06.890Z,4.00
2019-06-27T06:22:06.857Z,4.00
2019-06-27T06:23:06.846Z,4.00
2019-06-27T06:24:06.863Z,4.00
2019-06-27T06:25:06.904Z,4.00
2019-06-27T06:26:06.829Z,4.00
2019-06-27T06:27:06.821Z,4.00
2019-06-27T06:28:06.808Z,4.00
2019-06-27T06:29:06.798Z,4.00
2019-06-27T06:30:06.794Z,4.00
2019-06-27T06:31:06.776Z,4.00
2019-06-27T06:32:06.772Z,4.00
2019-06-27T06:33:06.781Z,4.00
2019-06-27T06:34:06.759Z,4.00
2019-06-27T06:35:06.767Z,4.00
2019-06-27T06:36:06.720Z,4.00
2019-06-27T06:37:08.117Z,4.00
2019-06-27T06:38:06.709Z,4.00
2019-06-27T06:39:06.745Z,4.00
2019-06-27T06:40:06.692Z,4.00
2019-06-27T06:41:06.718Z,4.00
2019-06-27T06:42:06.674Z,4.00
2019-06-27T06:43:06.661Z,4.00
2019-06-27T06:44:06.649Z,4.00
2019-06-27T06:45:06.644Z,4.00
2019-06-27T06:46:06.698Z,4.00
2019-06-27T06:47:06.623Z,4.00
2019-06-27T06:48:06.639Z,4.00
2019-06-27T06:49:06.594Z,4.00
2019-06-27T06:50:06.564Z,4.00
2019-06-27T06:51:06.568Z,4.00
2019-06-27T06:52:06.578Z,4.00
2019-06-27T06:53:06.554Z,4.00
2019-06-27T06:54:06.553Z,4.00
2019-06-27T06:55:06.523Z,4.00
2019-06-27T06:56:06.550Z,4.00
2019-06-27T06:57:06.535Z,4.00
2019-06-27T06:58:06.537Z,4.00
2019-06-27T06:59:06.504Z,4.00
2019-06-27T07:00:06.502Z,4.00
2019-06-27T07:01:06.460Z,4.00
2019-06-27T07:02:06.463Z,4.00
2019-06-27T07:03:06.455Z,4.00
2019-06-27T07:04:06.464Z,4.00
2019-06-27T07:05:06.566Z,4.00
2019-06-27T07:06:06.481Z,4.00
2019-06-27T07:07:06.413Z,4.00
2019-06-27T07:08:06.402Z,4.00
2019-06-27T07:09:06.394Z,4.00
2019-06-27T07:10:06.383Z,4.00
2019-06-27T07:11:06.378Z,4.00
2019-06-27T07:12:06.371Z,4.00
2019-06-27T07:13:06.355Z,4.00
2019-06-27T07:14:06.355Z,4.00
2019-06-27T07:15:06.373Z,4.00
2019-06-27T07:16:06.309Z,4.00
2019-06-27T07:17:06.308Z,4.00
2019-06-27T07:18:06.318Z,4.00
2019-06-27T07:19:06.306Z,4.00
2019-06-27T07:20:06.290Z,4.00
2019-06-27T07:21:06.281Z,4.00
2019-06-27T07:22:06.238Z,4.00
2019-06-27T07:23:06.259Z,4.00
2019-06-27T07:24:06.241Z,4.00
2019-06-27T07:25:06.220Z,4.00
2019-06-27T07:26:06.212Z,4.00
2019-06-27T07:27:06.206Z,4.00
2019-06-27T07:28:06.204Z,4.00
2019-06-27T07:29:06.230Z,4.00
2019-06-27T07:30:06.214Z,4.00
2019-06-27T07:31:17.159Z,4.00
2019-06-27T07:32:06.148Z,4.00
2019-06-27T07:33:06.144Z,4.00
2019-06-27T07:34:06.153Z,4.00
2019-06-27T07:35:06.121Z,4.00
2019-06-27T07:36:06.106Z,4.00
2019-06-27T07:37:06.114Z,4.00
2019-06-27T07:38:06.100Z,4.00
2019-06-27T07:39:06.074Z,4.00
2019-06-27T07:40:06.094Z,4.00
2019-06-27T07:41:06.075Z,4.00
2019-06-27T07:42:06.058Z,4.00
2019-06-27T07:43:06.053Z,4.00
2019-06-27T07:44:06.029Z,4.00
2019-06-27T07:45:06.028Z,4.00
2019-06-27T07:46:06.003Z,4.00
2019-06-27T07:47:06.025Z,4.00
2019-06-27T07:48:06.002Z,4.00
2019-06-27T07:49:05.994Z,4.00
2019-06-27T07:50:05.985Z,4.00
2019-06-27T07:51:05.979Z,4.00
2019-06-27T07:52:05.939Z,4.00
2019-06-27T07:53:05.948Z,4.00
2019-06-27T07:54:05.926Z,4.00
2019-06-27T07:55:05.943Z,4.00
2019-06-27T07:56:05.914Z,4.00
2019-06-27T07:57:05.900Z,4.00
2019-06-27T07:58:05.893Z,4.00
2019-06-27T07:59:05.882Z,4.00
2019-06-27T08:00:05.882Z,4.00
2019-06-27T08:01:05.858Z,4.00
2019-06-27T08:02:05.861Z,4.00
2019-06-27T08:03:05.840Z,4.00
2019-06-27T08:04:05.862Z,4.00
2019-06-27T08:05:05.831Z,4.00
2019-06-27T08:06:05.936Z,4.00
2019-06-27T08:07:05.791Z,4.00
2019-06-27T08:08:05.813Z,4.00
2019-06-27T08:09:05.783Z,4.00
2019-06-27T08:10:05.780Z,4.00
2019-06-27T08:11:05.777Z,4.00
2019-06-27T08:12:05.761Z,4.00
2019-06-27T08:13:05.793Z,4.00
2019-06-27T08:14:05.732Z,4.00
2019-06-27T08:15:05.988Z,4.00
2019-06-27T08:16:05.704Z,4.00
2019-06-27T08:17:05.758Z,4.00
2019-06-27T08:18:05.698Z,4.00
2019-06-27T08:19:05.680Z,4.00
2019-06-27T08:20:05.672Z,4.00
2019-06-27T08:21:05.675Z,4.00
2019-06-27T08:22:05.642Z,4.00
2019-06-27T08:23:05.671Z,4.00
2019-06-27T08:24:05.635Z,4.00
2019-06-27T08:25:05.634Z,4.00
2019-06-27T08:26:05.608Z,4.00
2019-06-27T08:27:05.608Z,4.00
2019-06-27T08:28:05.603Z,4.00
2019-06-27T08:29:05.596Z,4.00
2019-06-27T08:30:08.310Z,4.00
2019-06-27T08:31:05.551Z,4.00
2019-06-27T08:32:05.539Z,4.00
2019-06-27T08:33:05.542Z,4.00
2019-06-27T08:34:05.538Z,4.00
2019-06-27T08:35:05.537Z,4.00
2019-06-27T08:36:05.522Z,4.00
2019-06-27T08:37:05.509Z,4.00
2019-06-27T08:38:05.506Z,4.00
2019-06-27T08:39:05.493Z,4.00
2019-06-27T08:40:05.477Z,4.00
2019-06-27T08:41:05.472Z,4.00
2019-06-27T08:42:05.452Z,4.00
2019-06-27T08:43:05.485Z,4.00
2019-06-27T08:44:05.442Z,4.00
2019-06-27T08:45:05.447Z,4.00
2019-06-27T08:46:05.422Z,4.00
2019-06-27T08:47:05.403Z,4.00
2019-06-27T08:48:05.389Z,4.00
2019-06-27T08:49:05.392Z,4.00
2019-06-27T08:50:05.362Z,4.00
2019-06-27T08:51:05.391Z,4.00
2019-06-27T08:52:05.356Z,4.00
2019-06-27T08:53:05.341Z,4.00
2019-06-27T08:54:05.349Z,4.00
2019-06-27T08:55:05.319Z,4.00
2019-06-27T08:56:05.311Z,4.00
2019-06-27T08:57:05.346Z,4.00
2019-06-27T08:58:05.305Z,4.00
2019-06-27T08:59:05.277Z,4.00
2019-06-27T09:00:05.297Z,4.00
2019-06-27T09:01:05.260Z,4.00
2019-06-27T09:02:09.040Z,4.00
2019-06-27T09:03:05.352Z,4.00
2019-06-27T09:04:05.236Z,4.00
2019-06-27T09:05:05.219Z,4.00
2019-06-27T09:06:05.222Z,4.00
2019-06-27T09:07:05.217Z,4.00
2019-06-27T09:08:05.192Z,4.00
2019-06-27T09:09:05.182Z,4.00
2019-06-27T09:10:05.169Z,4.00
2019-06-27T09:11:05.167Z,4.00
2019-06-27T09:12:05.178Z,4.00
2019-06-27T09:13:05.145Z,4.00
2019-06-27T09:14:05.141Z,4.00
2019-06-27T09:15:05.130Z,4.00
2019-06-27T09:16:05.131Z,4.00
2019-06-27T09:17:05.115Z,4.00
2019-06-27T09:18:05.103Z,4.00
2019-06-27T09:19:05.077Z,4.00
2019-06-27T09:20:05.089Z,4.00
2019-06-27T09:21:05.108Z,4.00
2019-06-27T09:22:05.089Z,4.00
2019-06-27T09:23:05.044Z,4.00
2019-06-27T09:24:05.030Z,8.00
2019-06-27T09:25:05.028Z,8.00
2019-06-27T09:26:05.058Z,8.00
2019-06-27T09:27:05.002Z,8.00
2019-06-27T09:28:04.993Z,8.00
2019-06-27T09:29:04.985Z,8.00
2019-06-27T09:30:05.026Z,8.00
2019-06-27T09:31:05.060Z,8.00
2019-06-27T09:32:04.968Z,8.00
2019-06-27T09:33:04.951Z,8.00
2019-06-27T09:34:04.973Z,8.00
2019-06-27T09:35:04.914Z,8.00
2019-06-27T09:36:04.907Z,8.00
2019-06-27T09:37:04.907Z,8.00
2019-06-27T09:38:04.899Z,8.00
2019-06-27T09:39:04.868Z,12.00
2019-06-27T09:40:04.871Z,8.00
2019-06-27T09:41:04.869Z,8.00
2019-06-27T09:42:04.849Z,12.00
2019-06-27T09:43:04.842Z,12.00
2019-06-27T09:44:04.846Z,12.00
2019-06-27T09:45:04.857Z,16.00
2019-06-27T09:46:04.833Z,12.00
2019-06-27T09:47:04.809Z,16.00
2019-06-27T09:48:04.787Z,16.00
2019-06-27T09:49:04.786Z,20.00
2019-06-27T09:50:04.782Z,16.00
2019-06-27T09:51:04.751Z,16.00
2019-06-27T09:52:04.730Z,16.00
2019-06-27T09:53:04.797Z,20.00
2019-06-27T09:54:04.711Z,20.00
2019-06-27T09:55:04.723Z,20.00
2019-06-27T09:56:04.696Z,24.00
2019-06-27T09:57:04.699Z,28.00
2019-06-27T09:58:04.741Z,28.00
2019-06-27T09:59:04.678Z,28.00
2019-06-27T10:00:04.669Z,32.00
2019-06-27T10:01:06.128Z,36.00
2019-06-27T10:02:04.656Z,36.00
2019-06-27T10:03:04.659Z,40.00
2019-06-27T10:04:04.644Z,44.00
2019-06-27T10:05:04.622Z,44.00
2019-06-27T10:06:04.610Z,44.00
2019-06-27T10:07:04.590Z,48.00
2019-06-27T10:08:04.593Z,52.00
2019-06-27T10:09:04.574Z,52.00
2019-06-27T10:10:04.576Z,60.00
2019-06-27T10:11:04.547Z,60.00
2019-06-27T10:12:04.539Z,64.00
2019-06-27T10:13:04.546Z,64.00
2019-06-27T10:14:04.526Z,64.00
2019-06-27T10:15:04.537Z,64.00
2019-06-27T10:16:04.496Z,68.00
2019-06-27T10:17:04.503Z,72.00
2019-06-27T10:18:04.483Z,72.00
2019-06-27T10:19:04.481Z,76.00
2019-06-27T10:20:04.502Z,76.00
2019-06-27T10:21:04.462Z,76.00
2019-06-27T10:22:04.484Z,84.00
2019-06-27T10:23:04.440Z,92.00
2019-06-27T10:24:04.438Z,96.00
2019-06-27T10:25:04.422Z,112.00
2019-06-27T10:26:04.393Z,136.00
2019-06-27T10:27:04.392Z,164.00
2019-06-27T10:28:04.404Z,192.00
2019-06-27T10:29:04.370Z,204.00
2019-06-27T10:30:04.370Z,220.00
2019-06-27T10:31:04.364Z,224.00
2019-06-27T10:32:04.330Z,220.00
2019-06-27T10:33:04.337Z,220.00
2019-06-27T10:34:04.322Z,220.00
2019-06-27T10:35:04.359Z,220.00
2019-06-27T10:36:04.327Z,216.00
2019-06-27T10:37:04.330Z,224.00
2019-06-27T10:38:04.296Z,224.00
2019-06-27T10:39:04.287Z,208.00
2019-06-27T10:40:04.284Z,168.00
2019-06-27T10:41:04.258Z,164.00
2019-06-27T10:42:04.244Z,164.00
2019-06-27T10:43:04.245Z,180.00
2019-06-27T10:44:04.229Z,220.00
2019-06-27T10:45:04.196Z,212.00
2019-06-27T10:46:04.200Z,216.00
2019-06-27T10:47:04.202Z,224.00
2019-06-27T10:48:04.187Z,208.00
2019-06-27T10:49:04.188Z,200.00
2019-06-27T10:50:04.155Z,208.00
2019-06-27T10:51:04.166Z,212.00
2019-06-27T10:52:04.144Z,220.00
2019-06-27T10:53:04.124Z,224.00
2019-06-27T10:54:04.127Z,220.00
2019-06-27T10:55:04.136Z,220.00
2019-06-27T10:56:04.092Z,236.00
2019-06-27T10:57:04.093Z,248.00
2019-06-27T10:58:04.107Z,288.00
2019-06-27T10:59:04.076Z,272.00
2019-06-27T11:00:04.057Z,260.00
2019-06-27T11:01:04.067Z,260.00
2019-06-27T11:02:04.054Z,272.00
2019-06-27T11:03:15.076Z,288.00
2019-06-27T11:04:04.046Z,300.00
2019-06-27T11:05:04.034Z,300.00
2019-06-27T11:06:04.038Z,316.00
2019-06-27T11:07:04.003Z,340.00
2019-06-27T11:08:04.008Z,368.00
2019-06-27T11:09:03.989Z,364.00
2019-06-27T11:10:03.957Z,360.00
2019-06-27T11:11:03.956Z,380.00
2019-06-27T11:12:03.961Z,380.00
2019-06-27T11:13:03.934Z,376.00
2019-06-27T11:14:03.915Z,364.00
2019-06-27T11:15:03.940Z,364.00
2019-06-27T11:16:03.936Z,376.00
2019-06-27T11:17:03.912Z,376.00
2019-06-27T11:18:03.884Z,368.00
2019-06-27T11:19:03.886Z,352.00
2019-06-27T11:20:03.876Z,356.00
2019-06-27T11:21:03.860Z,348.00
2019-06-27T11:22:03.849Z,340.00
2019-06-27T11:23:03.851Z,320.00
2019-06-27T11:24:03.832Z,300.00
2019-06-27T11:25:03.814Z,324.00
2019-06-27T11:26:03.828Z,380.00
2019-06-27T11:27:03.809Z,436.00
2019-06-27T11:28:03.798Z,400.00
2019-06-27T11:29:03.811Z,428.00
2019-06-27T11:30:03.757Z,464.00
2019-06-27T11:31:03.776Z,476.00
2019-06-27T11:32:03.757Z,484.00
2019-06-27T11:33:03.753Z,452.00
2019-06-27T11:34:03.760Z,516.00
2019-06-27T11:35:03.726Z,484.00
2019-06-27T11:36:03.900Z,604.00
2019-06-27T11:37:03.710Z,764.00
2019-06-27T11:38:03.686Z,820.00
2019-06-27T11:39:03.688Z,936.00
2019-06-27T11:40:03.680Z,1112.00
2019-06-27T11:41:03.659Z,1652.00
2019-06-27T11:42:03.668Z,2100.00
2019-06-27T11:43:03.661Z,360.00
2019-06-27T11:44:03.678Z,6068.00
2019-06-27T11:45:03.635Z,480.00
2019-06-27T11:46:03.609Z,4360.00
2019-06-27T11:47:03.606Z,4296.00
2019-06-27T11:48:03.601Z,4484.00
2019-06-27T11:49:03.597Z,3468.00
2019-06-27T11:50:03.600Z,2304.00
2019-06-27T11:51:03.582Z,1988.00
2019-06-27T11:52:03.566Z,1912.00
2019-06-27T11:53:03.567Z,1852.00
2019-06-27T11:54:03.556Z,1896.00
2019-06-27T11:55:03.697Z,1844.00
2019-06-27T11:56:03.675Z,1192.00
2019-06-27T11:57:03.536Z,916.00
2019-06-27T11:58:03.544Z,788.00
2019-06-27T11:59:03.500Z,396.00
2019-06-27T12:00:03.490Z,304.00
2019-06-27T12:01:03.508Z,844.00
2019-06-27T12:02:03.484Z,288.00
2019-06-27T12:03:03.482Z,396.00
2019-06-27T12:04:03.960Z,1940.00
2019-06-27T12:05:03.470Z,1928.00
2019-06-27T12:06:03.479Z,1880.00
2019-06-27T12:07:03.455Z,1488.00
2019-06-27T12:08:03.471Z,540.00
2019-06-27T12:09:03.435Z,564.00
2019-06-27T12:10:03.403Z,452.00
2019-06-27T12:11:03.420Z,564.00
2019-06-27T12:12:03.407Z,996.00
2019-06-27T12:13:03.393Z,1788.00
2019-06-27T12:14:03.415Z,764.00
2019-06-27T12:15:03.759Z,452.00
2019-06-27T12:16:03.358Z,376.00
2019-06-27T12:17:03.367Z,404.00
2019-06-27T12:18:03.349Z,424.00
2019-06-27T12:19:03.339Z,488.00
2019-06-27T12:20:03.333Z,608.00
2019-06-27T12:21:05.933Z,1064.00
2019-06-27T12:22:03.331Z,1404.00
2019-06-27T12:23:03.301Z,548.00
2019-06-27T12:24:03.304Z,528.00
2019-06-27T12:25:03.326Z,516.00
2019-06-27T12:26:03.309Z,520.00
2019-06-27T12:27:03.733Z,1156.00
2019-06-27T12:28:03.274Z,1640.00
2019-06-27T12:29:03.305Z,920.00
2019-06-27T12:30:03.253Z,488.00
2019-06-27T12:31:19.422Z,508.00
2019-06-27T12:32:03.237Z,732.00
2019-06-27T12:33:03.275Z,544.00
2019-06-27T12:34:07.275Z,556.00
2019-06-27T12:35:03.213Z,664.00
2019-06-27T12:36:03.194Z,1724.00
2019-06-27T12:37:03.192Z,1984.00
2019-06-27T12:38:03.212Z,1984.00
2019-06-27T12:39:03.253Z,1988.00
2019-06-27T12:40:03.166Z,1956.00
2019-06-27T12:41:03.193Z,1920.00
2019-06-27T12:42:03.150Z,1892.00
2019-06-27T12:43:03.155Z,1852.00
2019-06-27T12:44:03.146Z,1836.00
2019-06-27T12:45:03.144Z,1836.00
2019-06-27T12:46:03.190Z,1832.00
2019-06-27T12:47:03.125Z,1836.00
2019-06-27T12:48:07.092Z,1820.00
2019-06-27T12:49:03.110Z,1744.00
2019-06-27T12:50:03.319Z,1704.00
2019-06-27T12:51:03.076Z,1732.00
2019-06-27T12:52:03.089Z,1624.00
2019-06-27T12:53:03.060Z,996.00
2019-06-27T12:54:03.071Z,1012.00
2019-06-27T12:55:03.064Z,680.00
2019-06-27T12:56:03.025Z,660.00
2019-06-27T12:57:03.161Z,1808.00
2019-06-27T12:58:03.028Z,1416.00
2019-06-27T12:59:03.057Z,1968.00
2019-06-27T13:00:03.045Z,1824.00
2019-06-27T13:01:03.012Z,864.00
2019-06-27T13:02:02.998Z,1192.00
2019-06-27T13:03:03.008Z,872.00
2019-06-27T13:04:03.005Z,1516.00